sensor_id;sensor_type;location;lat;lon;timestamp;pressure;altitude;pressure_sealevel;temperature;humidity
14120;BME280;7138;49.246;9.100;2023-06-24T00:00:21;99563.19;;;19.29;89.40
14120;BME280;7138;49.246;9.100;2023-06-24T00:02:48;99567.59;;;19.27;89.45
14120;BME280;7138;49.246;9.100;2023-06-24T00:05:16;99569.34;;;19.28;88.85
14120;BME280;7138;49.246;9.100;2023-06-24T00:07:42;99568.66;;;19.20;89.44
14120;BME280;7138;49.246;9.100;2023-06-24T00:10:11;99567.84;;;19.15;89.44
14120;BME280;7138;49.246;9.100;2023-06-24T00:12:38;99570.53;;;19.12;89.85
14120;BME280;7138;49.246;9.100;2023-06-24T00:15:06;99572.41;;;19.07;89.47
14120;BME280;7138;49.246;9.100;2023-06-24T00:17:33;99562.88;;;19.03;89.63
14120;BME280;7138;49.246;9.100;2023-06-24T00:20:00;99569.06;;;19.00;89.92
14120;BME280;7138;49.246;9.100;2023-06-24T00:22:26;99576.09;;;18.98;90.02
14120;BME280;7138;49.246;9.100;2023-06-24T00:24:52;99569.16;;;18.96;90.02
14120;BME280;7138;49.246;9.100;2023-06-24T00:27:17;99563.13;;;18.91;89.97
14120;BME280;7138;49.246;9.100;2023-06-24T00:29:43;99557.94;;;18.89;89.22
14120;BME280;7138;49.246;9.100;2023-06-24T00:32:09;99558.81;;;18.88;89.52
14120;BME280;7138;49.246;9.100;2023-06-24T00:34:35;99563.31;;;18.82;89.46
14120;BME280;7138;49.246;9.100;2023-06-24T00:37:02;99559.06;;;18.76;89.80
14120;BME280;7138;49.246;9.100;2023-06-24T00:39:28;99555.75;;;18.67;89.91
14120;BME280;7138;49.246;9.100;2023-06-24T00:41:54;99559.31;;;18.64;90.34
14120;BME280;7138;49.246;9.100;2023-06-24T00:44:20;99557.59;;;18.62;90.62
14120;BME280;7138;49.246;9.100;2023-06-24T00:46:46;99555.03;;;18.59;91.05
14120;BME280;7138;49.246;9.100;2023-06-24T00:49:12;99565.53;;;18.59;91.13
14120;BME280;7138;49.246;9.100;2023-06-24T00:51:40;99561.22;;;18.54;91.57
14120;BME280;7138;49.246;9.100;2023-06-24T00:54:17;99553.44;;;18.48;91.12
14120;BME280;7138;49.246;9.100;2023-06-24T00:56:43;99551.84;;;18.41;91.18
14120;BME280;7138;49.246;9.100;2023-06-24T00:59:13;99558.78;;;18.44;92.27
14120;BME280;7138;49.246;9.100;2023-06-24T01:01:40;99561.47;;;18.39;92.27
14120;BME280;7138;49.246;9.100;2023-06-24T01:04:07;99558.09;;;18.34;92.77
14120;BME280;7138;49.246;9.100;2023-06-24T01:06:36;99568.63;;;18.31;92.25
14120;BME280;7138;49.246;9.100;2023-06-24T01:09:03;99566.03;;;18.30;91.84
14120;BME280;7138;49.246;9.100;2023-06-24T01:11:32;99569.50;;;18.30;91.96
14120;BME280;7138;49.246;9.100;2023-06-24T01:13:57;99573.84;;;18.33;91.53
14120;BME280;7138;49.246;9.100;2023-06-24T01:16:36;99572.19;;;18.27;92.63
14120;BME280;7138;49.246;9.100;2023-06-24T01:19:31;99567.03;;;18.21;93.19
14120;BME280;7138;49.246;9.100;2023-06-24T01:22:11;99553.28;;;18.10;92.83
14120;BME280;7138;49.246;9.100;2023-06-24T01:25:00;99561.97;;;18.12;93.88
14120;BME280;7138;49.246;9.100;2023-06-24T01:27:57;99568.94;;;18.15;94.07
14120;BME280;7138;49.246;9.100;2023-06-24T01:31:16;99552.56;;;18.00;93.54
14120;BME280;7138;49.246;9.100;2023-06-24T01:33:50;99567.41;;;18.01;94.05
14120;BME280;7138;49.246;9.100;2023-06-24T01:36:20;99559.59;;;17.98;93.75
14120;BME280;7138;49.246;9.100;2023-06-24T01:38:52;99532.78;;;17.84;93.86
14120;BME280;7138;49.246;9.100;2023-06-24T01:41:26;99555.25;;;17.97;94.62
14120;BME280;7138;49.246;9.100;2023-06-24T01:43:57;99557.91;;;17.96;94.37
14120;BME280;7138;49.246;9.100;2023-06-24T01:46:28;99554.41;;;17.95;93.63
14120;BME280;7138;49.246;9.100;2023-06-24T01:48:59;99549.38;;;17.83;93.67
14120;BME280;7138;49.246;9.100;2023-06-24T01:51:31;99561.44;;;17.92;93.37
14120;BME280;7138;49.246;9.100;2023-06-24T01:54:04;99561.44;;;17.92;93.19
14120;BME280;7138;49.246;9.100;2023-06-24T01:56:31;99568.53;;;17.87;93.61
14120;BME280;7138;49.246;9.100;2023-06-24T01:59:02;99558.06;;;17.87;93.59
14120;BME280;7138;49.246;9.100;2023-06-24T02:01:32;99558.09;;;17.84;93.92
14120;BME280;7138;49.246;9.100;2023-06-24T02:04:01;99553.75;;;17.83;93.96
14120;BME280;7138;49.246;9.100;2023-06-24T02:06:29;99551.13;;;17.83;94.00
14120;BME280;7138;49.246;9.100;2023-06-24T02:08:58;99559.91;;;17.80;94.43
14120;BME280;7138;49.246;9.100;2023-06-24T02:11:25;99552.06;;;17.79;94.51
14120;BME280;7138;49.246;9.100;2023-06-24T02:13:55;99552.09;;;17.76;94.99
14120;BME280;7138;49.246;9.100;2023-06-24T02:16:22;99551.28;;;17.74;94.63
14120;BME280;7138;49.246;9.100;2023-06-24T02:18:51;99555.63;;;17.75;94.42
14120;BME280;7138;49.246;9.100;2023-06-24T02:21:19;99556.56;;;17.71;94.40
14120;BME280;7138;49.246;9.100;2023-06-24T02:23:46;99554.00;;;17.68;94.27
14120;BME280;7138;49.246;9.100;2023-06-24T02:26:14;99556.66;;;17.63;94.53
14120;BME280;7138;49.246;9.100;2023-06-24T02:28:42;99548.84;;;17.60;94.21
14120;BME280;7138;49.246;9.100;2023-06-24T02:31:12;99555.00;;;17.58;94.38
14120;BME280;7138;49.246;9.100;2023-06-24T02:33:38;99542.13;;;17.44;94.13
14120;BME280;7138;49.246;9.100;2023-06-24T02:36:05;99547.22;;;17.53;94.30
14120;BME280;7138;49.246;9.100;2023-06-24T02:38:31;99551.59;;;17.51;94.34
14120;BME280;7138;49.246;9.100;2023-06-24T02:40:57;99542.94;;;17.47;94.59
14120;BME280;7138;49.246;9.100;2023-06-24T02:43:24;99543.00;;;17.44;94.12
14120;BME280;7138;49.246;9.100;2023-06-24T02:45:51;99549.97;;;17.42;94.30
14120;BME280;7138;49.246;9.100;2023-06-24T02:48:20;99550.88;;;17.40;94.01
14120;BME280;7138;49.246;9.100;2023-06-24T02:50:47;99550.09;;;17.35;94.56
14120;BME280;7138;49.246;9.100;2023-06-24T02:53:15;99545.81;;;17.29;94.21
14120;BME280;7138;49.246;9.100;2023-06-24T02:55:42;99551.97;;;17.25;94.64
14120;BME280;7138;49.246;9.100;2023-06-24T02:58:09;99549.41;;;17.21;95.71
14120;BME280;7138;49.246;9.100;2023-06-24T03:00:36;99552.88;;;17.21;96.07
14120;BME280;7138;49.246;9.100;2023-06-24T03:03:05;99556.38;;;17.22;96.20
14120;BME280;7138;49.246;9.100;2023-06-24T03:05:32;99555.50;;;17.21;96.49
14120;BME280;7138;49.246;9.100;2023-06-24T03:07:58;99552.06;;;17.18;96.76
14120;BME280;7138;49.246;9.100;2023-06-24T03:10:26;99555.59;;;17.17;97.00
14120;BME280;7138;49.246;9.100;2023-06-24T03:12:52;99554.72;;;17.16;97.21
14120;BME280;7138;49.246;9.100;2023-06-24T03:15:19;99557.31;;;17.16;97.17
14120;BME280;7138;49.246;9.100;2023-06-24T03:17:46;99565.16;;;17.16;97.36
14120;BME280;7138;49.246;9.100;2023-06-24T03:20:12;99564.25;;;17.19;97.20
14120;BME280;7138;49.246;9.100;2023-06-24T03:22:38;99563.34;;;17.21;97.16
14120;BME280;7138;49.246;9.100;2023-06-24T03:25:04;99563.34;;;17.21;97.17
14120;BME280;7138;49.246;9.100;2023-06-24T03:27:31;99564.25;;;17.19;97.42
14120;BME280;7138;49.246;9.100;2023-06-24T03:29:59;99564.28;;;17.16;96.59
14120;BME280;7138;49.246;9.100;2023-06-24T03:32:25;99566.91;;;17.16;97.45
14120;BME280;7138;49.246;9.100;2023-06-24T03:34:51;99563.41;;;17.17;97.61
14120;BME280;7138;49.246;9.100;2023-06-24T03:37:17;99565.13;;;17.18;97.72
14120;BME280;7138;49.246;9.100;2023-06-24T03:39:43;99566.91;;;17.17;97.44
14120;BME280;7138;49.246;9.100;2023-06-24T03:42:08;99562.56;;;17.16;97.87
14120;BME280;7138;49.246;9.100;2023-06-24T03:44:36;99574.72;;;17.20;97.86
14120;BME280;7138;49.246;9.100;2023-06-24T03:47:02;99578.13;;;17.24;97.71
14120;BME280;7138;49.246;9.100;2023-06-24T03:49:27;99576.34;;;17.27;97.49
14120;BME280;7138;49.246;9.100;2023-06-24T03:51:53;99578.06;;;17.28;97.06
14120;BME280;7138;49.246;9.100;2023-06-24T03:54:19;99580.69;;;17.28;96.92
14120;BME280;7138;49.246;9.100;2023-06-24T03:56:45;99577.25;;;17.26;96.96
14120;BME280;7138;49.246;9.100;2023-06-24T03:59:11;99586.78;;;17.29;96.90
14120;BME280;7138;49.246;9.100;2023-06-24T04:01:39;99587.63;;;17.31;96.40
14120;BME280;7138;49.246;9.100;2023-06-24T04:04:05;99592.84;;;17.32;96.87
14120;BME280;7138;49.246;9.100;2023-06-24T04:06:31;99587.56;;;17.35;96.82
14120;BME280;7138;49.246;9.100;2023-06-24T04:08:57;99594.50;;;17.38;96.65
14120;BME280;7138;49.246;9.100;2023-06-24T04:11:22;99596.25;;;17.36;97.11
14120;BME280;7138;49.246;9.100;2023-06-24T04:13:48;99601.47;;;17.36;96.91
14120;BME280;7138;49.246;9.100;2023-06-24T04:16:14;99602.31;;;17.39;97.06
14120;BME280;7138;49.246;9.100;2023-06-24T04:18:42;99602.22;;;17.45;96.91
14120;BME280;7138;49.246;9.100;2023-06-24T04:21:07;99599.56;;;17.48;96.68
14120;BME280;7138;49.246;9.100;2023-06-24T04:23:33;99606.50;;;17.53;97.03
14120;BME280;7138;49.246;9.100;2023-06-24T04:25:59;99608.19;;;17.60;96.50
14120;BME280;7138;49.246;9.100;2023-06-24T04:28:25;99603.75;;;17.63;96.97
14120;BME280;7138;49.246;9.100;2023-06-24T04:30:52;99604.56;;;17.68;97.19
14120;BME280;7138;49.246;9.100;2023-06-24T04:33:18;99609.72;;;17.73;96.82
14120;BME280;7138;49.246;9.100;2023-06-24T04:35:46;99612.28;;;17.76;96.87
14120;BME280;7138;49.246;9.100;2023-06-24T04:38:12;99612.22;;;17.79;97.52
14120;BME280;7138;49.246;9.100;2023-06-24T04:40:43;99622.56;;;17.88;96.76
14120;BME280;7138;49.246;9.100;2023-06-24T04:43:09;99614.59;;;17.95;96.43
14120;BME280;7138;49.246;9.100;2023-06-24T04:45:35;99625.81;;;18.05;96.11
14120;BME280;7138;49.246;9.100;2023-06-24T04:48:01;99622.19;;;18.12;95.75
14120;BME280;7138;49.246;9.100;2023-06-24T04:50:26;99623.00;;;18.17;95.69
14120;BME280;7138;49.246;9.100;2023-06-24T04:52:54;99635.94;;;18.25;96.05
14120;BME280;7138;49.246;9.100;2023-06-24T04:55:22;99626.28;;;18.30;95.87
14120;BME280;7138;49.246;9.100;2023-06-24T04:57:48;99631.34;;;18.39;96.08
14120;BME280;7138;49.246;9.100;2023-06-24T05:00:14;99632.94;;;18.49;96.30
14120;BME280;7138;49.246;9.100;2023-06-24T05:02:40;99631.84;;;18.61;95.42
14120;BME280;7138;49.246;9.100;2023-06-24T05:05:07;99629.81;;;18.76;94.63
14120;BME280;7138;49.246;9.100;2023-06-24T05:07:33;99636.22;;;19.06;94.09
14120;BME280;7138;49.246;9.100;2023-06-24T05:10:00;99626.69;;;19.46;92.32
14120;BME280;7138;49.246;9.100;2023-06-24T05:12:26;99634.28;;;19.97;90.62
14120;BME280;7138;49.246;9.100;2023-06-24T05:14:52;99636.31;;;20.56;88.92
14120;BME280;7138;49.246;9.100;2023-06-24T05:17:18;99622.41;;;21.17;88.20
14120;BME280;7138;49.246;9.100;2023-06-24T05:19:44;99630.59;;;21.95;84.88
14120;BME280;7138;49.246;9.100;2023-06-24T05:22:10;99633.50;;;22.67;81.97
14120;BME280;7138;49.246;9.100;2023-06-24T05:24:35;99629.19;;;23.37;78.79
14120;BME280;7138;49.246;9.100;2023-06-24T05:27:06;99635.84;;;23.92;77.76
14120;BME280;7138;49.246;9.100;2023-06-24T05:29:32;99649.13;;;24.56;75.80
14120;BME280;7138;49.246;9.100;2023-06-24T05:31:58;99643.31;;;25.09;73.26
14120;BME280;7138;49.246;9.100;2023-06-24T05:34:24;99642.41;;;25.67;72.80
14120;BME280;7138;49.246;9.100;2023-06-24T05:36:50;99643.47;;;26.36;70.62
14120;BME280;7138;49.246;9.100;2023-06-24T05:39:17;99640.53;;;26.94;69.14
14120;BME280;7138;49.246;9.100;2023-06-24T05:41:43;99635.66;;;27.52;67.70
14120;BME280;7138;49.246;9.100;2023-06-24T05:44:10;99639.22;;;28.15;66.74
14120;BME280;7138;49.246;9.100;2023-06-24T05:46:37;99645.38;;;28.61;66.24
14120;BME280;7138;49.246;9.100;2023-06-24T05:49:03;99642.69;;;29.20;64.90
14120;BME280;7138;49.246;9.100;2023-06-24T05:51:29;99637.53;;;29.74;63.98
14120;BME280;7138;49.246;9.100;2023-06-24T05:53:55;99646.44;;;30.28;62.96
14120;BME280;7138;49.246;9.100;2023-06-24T05:56:22;99649.28;;;30.66;61.28
14120;BME280;7138;49.246;9.100;2023-06-24T05:58:48;99628.81;;;31.04;60.21
14120;BME280;7138;49.246;9.100;2023-06-24T06:01:15;99643.66;;;31.59;58.74
14120;BME280;7138;49.246;9.100;2023-06-24T06:03:41;99647.13;;;31.97;57.82
14120;BME280;7138;49.246;9.100;2023-06-24T06:06:07;99647.59;;;32.38;57.93
14120;BME280;7138;49.246;9.100;2023-06-24T06:08:33;99650.66;;;32.69;56.65
14120;BME280;7138;49.246;9.100;2023-06-24T06:10:59;99645.94;;;32.72;56.83
14120;BME280;7138;49.246;9.100;2023-06-24T06:13:26;99643.31;;;32.94;56.38
14120;BME280;7138;49.246;9.100;2023-06-24T06:15:51;99638.38;;;33.23;56.30
14120;BME280;7138;49.246;9.100;2023-06-24T06:18:19;99642.91;;;33.56;55.22
14120;BME280;7138;49.246;9.100;2023-06-24T06:20:44;99644.09;;;33.96;55.24
14120;BME280;7138;49.246;9.100;2023-06-24T06:23:10;99636.31;;;34.36;54.31
14120;BME280;7138;49.246;9.100;2023-06-24T06:25:36;99646.09;;;34.69;53.80
14120;BME280;7138;49.246;9.100;2023-06-24T06:28:04;99643.56;;;35.09;52.15
14120;BME280;7138;49.246;9.100;2023-06-24T06:30:29;99641.53;;;35.22;52.00
14120;BME280;7138;49.246;9.100;2023-06-24T06:32:55;99639.56;;;35.24;51.16
14120;BME280;7138;49.246;9.100;2023-06-24T06:35:22;99642.94;;;35.17;52.22
14120;BME280;7138;49.246;9.100;2023-06-24T06:37:48;99635.41;;;34.99;51.34
14120;BME280;7138;49.246;9.100;2023-06-24T06:40:18;99635.41;;;34.79;51.79
14120;BME280;7138;49.246;9.100;2023-06-24T06:42:44;99632.03;;;34.77;52.67
14120;BME280;7138;49.246;9.100;2023-06-24T06:45:10;99634.75;;;34.66;52.98
14120;BME280;7138;49.246;9.100;2023-06-24T06:47:36;99635.44;;;34.47;53.22
14120;BME280;7138;49.246;9.100;2023-06-24T06:50:02;99632.94;;;34.34;53.25
14120;BME280;7138;49.246;9.100;2023-06-24T06:52:30;99626.00;;;34.21;53.65
14120;BME280;7138;49.246;9.100;2023-06-24T06:54:56;99624.84;;;33.91;53.54
14120;BME280;7138;49.246;9.100;2023-06-24T06:57:22;99626.09;;;33.43;53.86
14120;BME280;7138;49.246;9.100;2023-06-24T06:59:48;99620.66;;;32.98;54.39
14120;BME280;7138;49.246;9.100;2023-06-24T07:02:16;99622.19;;;32.68;55.14
14120;BME280;7138;49.246;9.100;2023-06-24T07:04:42;99619.13;;;32.37;55.77
14120;BME280;7138;49.246;9.100;2023-06-24T07:07:08;99613.91;;;32.12;55.85
14120;BME280;7138;49.246;9.100;2023-06-24T07:09:35;99613.22;;;31.85;56.45
14120;BME280;7138;49.246;9.100;2023-06-24T07:12:01;99615.00;;;31.61;55.96
14120;BME280;7138;49.246;9.100;2023-06-24T07:14:27;99614.78;;;31.38;56.62
14120;BME280;7138;49.246;9.100;2023-06-24T07:16:53;99603.38;;;31.24;57.97
14120;BME280;7138;49.246;9.100;2023-06-24T07:19:19;99613.00;;;31.01;58.85
14120;BME280;7138;49.246;9.100;2023-06-24T07:21:45;99606.63;;;30.77;58.61
14120;BME280;7138;49.246;9.100;2023-06-24T07:24:11;99607.19;;;30.69;59.56
14120;BME280;7138;49.246;9.100;2023-06-24T07:26:38;99619.16;;;30.64;58.39
14120;BME280;7138;49.246;9.100;2023-06-24T07:29:06;99618.47;;;30.48;59.68
14120;BME280;7138;49.246;9.100;2023-06-24T07:31:32;99610.78;;;30.29;60.06
14120;BME280;7138;49.246;9.100;2023-06-24T07:33:58;99613.59;;;30.27;59.48
14120;BME280;7138;49.246;9.100;2023-06-24T07:36:24;99618.00;;;30.14;60.58
14120;BME280;7138;49.246;9.100;2023-06-24T07:38:50;99607.75;;;30.08;61.10
14120;BME280;7138;49.246;9.100;2023-06-24T07:41:16;99615.94;;;30.05;61.78
14120;BME280;7138;49.246;9.100;2023-06-24T07:43:43;99621.88;;;29.96;60.48
14120;BME280;7138;49.246;9.100;2023-06-24T07:46:09;99619.91;;;29.86;61.08
14120;BME280;7138;49.246;9.100;2023-06-24T07:48:35;99613.94;;;29.82;60.13
14120;BME280;7138;49.246;9.100;2023-06-24T07:51:01;99613.72;;;29.85;60.71
14120;BME280;7138;49.246;9.100;2023-06-24T07:53:27;99618.28;;;29.97;59.09
14120;BME280;7138;49.246;9.100;2023-06-24T07:55:53;99611.75;;;30.01;59.04
14120;BME280;7138;49.246;9.100;2023-06-24T07:58:18;99611.47;;;30.06;58.58
14120;BME280;7138;49.246;9.100;2023-06-24T08:00:48;99613.63;;;30.13;57.73
14120;BME280;7138;49.246;9.100;2023-06-24T08:03:14;99600.66;;;30.21;58.02
14120;BME280;7138;49.246;9.100;2023-06-24T08:05:40;99605.91;;;30.35;57.81
14120;BME280;7138;49.246;9.100;2023-06-24T08:08:06;99611.59;;;30.44;58.58
14120;BME280;7138;49.246;9.100;2023-06-24T08:10:32;99595.63;;;30.56;56.80
14120;BME280;7138;49.246;9.100;2023-06-24T08:12:58;99599.78;;;30.60;57.76
14120;BME280;7138;49.246;9.100;2023-06-24T08:15:24;99599.25;;;30.68;57.21
14120;BME280;7138;49.246;9.100;2023-06-24T08:17:52;99607.63;;;30.76;57.71
14120;BME280;7138;49.246;9.100;2023-06-24T08:20:19;99600.13;;;30.81;57.16
14120;BME280;7138;49.246;9.100;2023-06-24T08:22:45;99598.56;;;30.91;56.38
14120;BME280;7138;49.246;9.100;2023-06-24T08:25:11;99598.97;;;30.98;55.78
14120;BME280;7138;49.246;9.100;2023-06-24T08:27:37;99601.25;;;31.04;56.10
14120;BME280;7138;49.246;9.100;2023-06-24T08:30:04;99599.53;;;31.03;53.11
14120;BME280;7138;49.246;9.100;2023-06-24T08:32:30;99599.84;;;30.98;53.76
14120;BME280;7138;49.246;9.100;2023-06-24T08:34:57;99593.47;;;31.01;53.53
14120;BME280;7138;49.246;9.100;2023-06-24T08:37:23;99585.44;;;31.01;54.42
14120;BME280;7138;49.246;9.100;2023-06-24T08:39:49;99594.63;;;31.09;55.57
14120;BME280;7138;49.246;9.100;2023-06-24T08:42:15;99587.47;;;31.10;53.54
14120;BME280;7138;49.246;9.100;2023-06-24T08:44:41;99587.34;;;31.11;55.58
14120;BME280;7138;49.246;9.100;2023-06-24T08:47:07;99588.84;;;31.15;56.69
14120;BME280;7138;49.246;9.100;2023-06-24T08:49:39;99584.66;;;31.24;56.13
14120;BME280;7138;49.246;9.100;2023-06-24T08:52:13;99593.53;;;31.37;55.97
14120;BME280;7138;49.246;9.100;2023-06-24T08:54:42;99590.59;;;31.53;55.64
14120;BME280;7138;49.246;9.100;2023-06-24T08:57:11;99596.69;;;31.67;56.77
14120;BME280;7138;49.246;9.100;2023-06-24T08:59:41;99594.63;;;31.71;53.92
14120;BME280;7138;49.246;9.100;2023-06-24T09:02:08;99590.78;;;31.75;54.21
14120;BME280;7138;49.246;9.100;2023-06-24T09:04:34;99586.28;;;31.75;52.52
14120;BME280;7138;49.246;9.100;2023-06-24T09:07:00;99586.81;;;31.68;55.89
14120;BME280;7138;49.246;9.100;2023-06-24T09:09:27;99590.03;;;31.73;52.79
14120;BME280;7138;49.246;9.100;2023-06-24T09:11:56;99594.81;;;31.80;53.19
14120;BME280;7138;49.246;9.100;2023-06-24T09:14:24;99584.28;;;31.90;52.23
14120;BME280;7138;49.246;9.100;2023-06-24T09:16:54;99589.31;;;31.94;51.46
14120;BME280;7138;49.246;9.100;2023-06-24T09:19:22;99578.84;;;31.91;50.62
14120;BME280;7138;49.246;9.100;2023-06-24T09:21:48;99576.94;;;31.81;50.75
14120;BME280;7138;49.246;9.100;2023-06-24T09:24:14;99581.78;;;31.76;54.15
14120;BME280;7138;49.246;9.100;2023-06-24T09:26:43;99571.75;;;31.67;50.57
14120;BME280;7138;49.246;9.100;2023-06-24T09:29:10;99572.66;;;31.55;50.96
14120;BME280;7138;49.246;9.100;2023-06-24T09:31:47;99574.38;;;31.30;50.44
14120;BME280;7138;49.246;9.100;2023-06-24T09:34:13;99563.59;;;31.19;52.08
14120;BME280;7138;49.246;9.100;2023-06-24T09:36:43;99561.69;;;31.21;52.96
14120;BME280;7138;49.246;9.100;2023-06-24T09:39:09;99562.13;;;31.15;52.35
14120;BME280;7138;49.246;9.100;2023-06-24T09:41:35;99562.41;;;31.11;51.11
14120;BME280;7138;49.246;9.100;2023-06-24T09:44:09;99560.31;;;31.03;53.62
14120;BME280;7138;49.246;9.100;2023-06-24T09:46:37;99556.13;;;30.99;54.55
14120;BME280;7138;49.246;9.100;2023-06-24T09:49:03;99557.00;;;31.00;51.78
14120;BME280;7138;49.246;9.100;2023-06-24T09:51:31;99531.22;;;30.99;52.19
14120;BME280;7138;49.246;9.100;2023-06-24T09:53:58;99549.19;;;31.09;51.82
14120;BME280;7138;49.246;9.100;2023-06-24T09:56:25;99550.25;;;31.07;51.48
14120;BME280;7138;49.246;9.100;2023-06-24T09:58:51;99546.72;;;31.06;51.95
14120;BME280;7138;49.246;9.100;2023-06-24T10:01:18;99546.53;;;30.97;50.18
14120;BME280;7138;49.246;9.100;2023-06-24T10:03:44;99551.31;;;30.79;51.37
14120;BME280;7138;49.246;9.100;2023-06-24T10:06:10;99527.34;;;30.65;52.10
14120;BME280;7138;49.246;9.100;2023-06-24T10:08:36;99543.59;;;30.62;52.80
14120;BME280;7138;49.246;9.100;2023-06-24T10:11:02;99530.66;;;30.68;51.70
14120;BME280;7138;49.246;9.100;2023-06-24T10:13:28;99526.50;;;30.77;51.56
14120;BME280;7138;49.246;9.100;2023-06-24T10:15:55;99531.56;;;30.94;53.44
14120;BME280;7138;49.246;9.100;2023-06-24T10:18:37;99527.25;;;31.04;52.77
14120;BME280;7138;49.246;9.100;2023-06-24T10:21:04;99534.97;;;31.09;51.56
14120;BME280;7138;49.246;9.100;2023-06-24T10:23:33;99522.47;;;31.09;51.41
14120;BME280;7138;49.246;9.100;2023-06-24T10:25:59;99518.06;;;31.08;50.74
14120;BME280;7138;49.246;9.100;2023-06-24T10:28:25;99525.78;;;31.13;51.06
14120;BME280;7138;49.246;9.100;2023-06-24T10:30:55;99520.41;;;31.13;51.08
14120;BME280;7138;49.246;9.100;2023-06-24T10:33:24;99513.00;;;31.16;52.94
14120;BME280;7138;49.246;9.100;2023-06-24T10:35:52;99505.41;;;31.23;50.28
14120;BME280;7138;49.246;9.100;2023-06-24T10:38:18;99503.34;;;31.39;52.16
14120;BME280;7138;49.246;9.100;2023-06-24T10:40:45;99493.38;;;31.54;51.51
14120;BME280;7138;49.246;9.100;2023-06-24T10:43:27;99496.00;;;31.66;50.33
14120;BME280;7138;49.246;9.100;2023-06-24T10:45:54;99493.25;;;31.79;51.61
14120;BME280;7138;49.246;9.100;2023-06-24T10:48:21;99487.25;;;31.99;49.65
14120;BME280;7138;49.246;9.100;2023-06-24T10:50:47;99484.53;;;32.12;51.27
14120;BME280;7138;49.246;9.100;2023-06-24T10:53:14;99477.22;;;32.14;50.04
14120;BME280;7138;49.246;9.100;2023-06-24T10:55:41;99465.53;;;32.04;51.40
14120;BME280;7138;49.246;9.100;2023-06-24T10:58:07;99477.38;;;32.23;51.64
14120;BME280;7138;49.246;9.100;2023-06-24T11:00:34;99473.13;;;32.32;50.15
14120;BME280;7138;49.246;9.100;2023-06-24T11:03:08;99466.00;;;32.43;50.41
14120;BME280;7138;49.246;9.100;2023-06-24T11:05:34;99471.59;;;32.40;51.50
14120;BME280;7138;49.246;9.100;2023-06-24T11:08:02;99459.63;;;32.44;48.47
14120;BME280;7138;49.246;9.100;2023-06-24T11:10:29;99457.34;;;32.40;49.37
14120;BME280;7138;49.246;9.100;2023-06-24T11:12:55;99460.00;;;32.40;50.04
14120;BME280;7138;49.246;9.100;2023-06-24T11:15:23;99451.13;;;32.39;49.31
14120;BME280;7138;49.246;9.100;2023-06-24T11:17:51;99452.13;;;32.50;49.25
14120;BME280;7138;49.246;9.100;2023-06-24T11:20:17;99453.44;;;32.55;49.76
14120;BME280;7138;49.246;9.100;2023-06-24T11:22:44;99451.44;;;32.59;47.71
14120;BME280;7138;49.246;9.100;2023-06-24T11:25:15;99451.66;;;32.56;46.74
14120;BME280;7138;49.246;9.100;2023-06-24T11:27:43;99454.41;;;32.43;46.70
14120;BME280;7138;49.246;9.100;2023-06-24T11:30:12;99444.19;;;32.37;46.36
14120;BME280;7138;49.246;9.100;2023-06-24T11:32:39;99440.38;;;32.28;47.24
14120;BME280;7138;49.246;9.100;2023-06-24T11:35:08;99442.81;;;32.20;46.70
14120;BME280;7138;49.246;9.100;2023-06-24T11:37:35;99440.09;;;32.09;47.47
14120;BME280;7138;49.246;9.100;2023-06-24T11:40:03;99440.34;;;32.06;47.76
14120;BME280;7138;49.246;9.100;2023-06-24T11:42:30;99443.47;;;32.00;48.29
14120;BME280;7138;49.246;9.100;2023-06-24T11:45:01;99434.13;;;32.06;48.37
14120;BME280;7138;49.246;9.100;2023-06-24T11:47:31;99429.75;;;32.05;48.36
14120;BME280;7138;49.246;9.100;2023-06-24T11:49:58;99427.09;;;32.16;52.23
14120;BME280;7138;49.246;9.100;2023-06-24T11:52:33;99427.84;;;32.29;51.01
14120;BME280;7138;49.246;9.100;2023-06-24T11:55:04;99430.41;;;32.30;48.25
14120;BME280;7138;49.246;9.100;2023-06-24T11:57:52;99411.63;;;32.19;48.51
14120;BME280;7138;49.246;9.100;2023-06-24T12:00:22;99415.78;;;32.23;50.70
14120;BME280;7138;49.246;9.100;2023-06-24T12:02:52;99409.94;;;32.29;51.55
14120;BME280;7138;49.246;9.100;2023-06-24T12:05:24;99405.09;;;32.34;49.03
14120;BME280;7138;49.246;9.100;2023-06-24T12:07:58;99406.94;;;32.34;48.78
14120;BME280;7138;49.246;9.100;2023-06-24T12:10:25;99400.47;;;32.36;49.99
14120;BME280;7138;49.246;9.100;2023-06-24T12:12:51;99399.03;;;32.43;50.93
14120;BME280;7138;49.246;9.100;2023-06-24T12:15:17;99387.81;;;32.50;48.31
14120;BME280;7138;49.246;9.100;2023-06-24T12:17:44;99396.44;;;32.42;48.89
14120;BME280;7138;49.246;9.100;2023-06-24T12:20:11;99391.59;;;32.36;50.68
14120;BME280;7138;49.246;9.100;2023-06-24T12:22:39;99387.56;;;32.30;49.67
14120;BME280;7138;49.246;9.100;2023-06-24T12:25:07;99385.13;;;32.38;51.13
14120;BME280;7138;49.246;9.100;2023-06-24T12:27:33;99382.09;;;32.43;48.63
14120;BME280;7138;49.246;9.100;2023-06-24T12:29:59;99385.50;;;32.45;48.09
14120;BME280;7138;49.246;9.100;2023-06-24T12:32:26;99379.28;;;32.44;48.21
14120;BME280;7138;49.246;9.100;2023-06-24T12:34:54;99378.31;;;32.45;51.04
14120;BME280;7138;49.246;9.100;2023-06-24T12:37:19;99378.31;;;32.45;49.07
14120;BME280;7138;49.246;9.100;2023-06-24T12:39:45;99374.16;;;32.41;49.85
14120;BME280;7138;49.246;9.100;2023-06-24T12:42:11;99374.53;;;32.37;49.26
14120;BME280;7138;49.246;9.100;2023-06-24T12:44:38;99381.25;;;32.31;47.33
14120;BME280;7138;49.246;9.100;2023-06-24T12:47:04;99374.66;;;32.24;49.75
14120;BME280;7138;49.246;9.100;2023-06-24T12:49:30;99366.00;;;32.21;49.27
14120;BME280;7138;49.246;9.100;2023-06-24T12:51:57;99367.34;;;32.26;47.88
14120;BME280;7138;49.246;9.100;2023-06-24T12:54:23;99353.09;;;32.26;49.44
14120;BME280;7138;49.246;9.100;2023-06-24T12:56:49;99357.88;;;32.33;49.41
14120;BME280;7138;49.246;9.100;2023-06-24T12:59:15;99354.31;;;32.44;49.17
14120;BME280;7138;49.246;9.100;2023-06-24T13:01:41;99352.00;;;32.51;48.93
14120;BME280;7138;49.246;9.100;2023-06-24T13:04:10;99353.72;;;32.40;48.50
14120;BME280;7138;49.246;9.100;2023-06-24T13:06:36;99356.66;;;32.37;47.52
14120;BME280;7138;49.246;9.100;2023-06-24T13:09:03;99354.22;;;32.34;47.29
14120;BME280;7138;49.246;9.100;2023-06-24T13:11:29;99348.59;;;32.15;47.63